createdAt,value
2018-09-25T00:02:29.043Z,65.62
2018-09-25T00:05:02.722Z,65.29
2018-09-25T00:07:36.042Z,65.15
2018-09-25T00:10:09.506Z,65.24
2018-09-25T00:12:42.735Z,65.33
2018-09-25T00:15:16.174Z,64.75
2018-09-25T00:17:49.453Z,64.78
2018-09-25T00:20:22.809Z,64.89
2018-09-25T00:22:56.273Z,64.42
2018-09-25T00:25:30.034Z,65.43
2018-09-25T00:28:03.577Z,65.46
2018-09-25T00:30:37.241Z,64.23
2018-09-25T00:33:10.857Z,63.99
2018-09-25T00:35:44.259Z,63.94
2018-09-25T00:38:17.826Z,64.45
2018-09-25T00:40:51.241Z,64.06
2018-09-25T00:43:24.790Z,63.59
2018-09-25T00:45:58.075Z,64.33
2018-09-25T00:48:31.574Z,63.81
2018-09-25T00:51:04.951Z,64.50
2018-09-25T00:53:38.226Z,63.79
2018-09-25T00:56:11.692Z,64.38
2018-09-25T00:58:44.978Z,63.26
2018-09-25T01:01:18.475Z,63.87
2018-09-25T01:03:51.752Z,63.45
2018-09-25T01:06:24.937Z,62.63
2018-09-25T01:08:58.239Z,62.62
2018-09-25T01:11:31.693Z,62.35
2018-09-25T01:14:05.287Z,62.12
2018-09-25T01:16:38.810Z,62.79
2018-09-25T01:19:12.622Z,62.97
2018-09-25T01:21:45.850Z,63.24
2018-09-25T01:24:19.330Z,62.69
2018-09-25T01:26:52.614Z,64.10
2018-09-25T01:29:25.887Z,63.68
2018-09-25T01:31:59.338Z,63.71
2018-09-25T01:34:32.710Z,63.82
2018-09-25T01:37:06.112Z,64.16
2018-09-25T01:39:39.594Z,63.65
2018-09-25T01:42:12.908Z,64.00
2018-09-25T01:44:46.146Z,64.18
2018-09-25T01:47:19.337Z,64.55
2018-09-25T01:49:52.765Z,64.28
2018-09-25T01:52:26.179Z,64.38
2018-09-25T01:54:59.742Z,64.82
2018-09-25T01:57:33.129Z,64.81
2018-09-25T02:00:07.179Z,65.48
2018-09-25T02:02:40.794Z,66.08
2018-09-25T02:05:14.305Z,66.50
2018-09-25T02:07:47.735Z,66.33
2018-09-25T02:10:21.167Z,66.62
2018-09-25T02:12:54.610Z,65.65
2018-09-25T02:15:28.065Z,66.60
2018-09-25T02:18:01.354Z,66.53
2018-09-25T02:20:34.856Z,66.81
2018-09-25T02:23:08.170Z,66.85
2018-09-25T02:25:41.648Z,67.31
2018-09-25T02:28:14.989Z,66.87
2018-09-25T02:30:48.369Z,65.90
2018-09-25T02:33:21.817Z,65.82
2018-09-25T02:35:55.351Z,66.64
2018-09-25T02:38:28.876Z,67.23
2018-09-25T02:41:02.270Z,66.74
2018-09-25T02:43:35.595Z,67.56
2018-09-25T02:46:08.814Z,66.29
2018-09-25T02:48:42.156Z,66.51
2018-09-25T02:51:15.409Z,67.13
2018-09-25T02:53:48.834Z,66.64
2018-09-25T02:56:22.266Z,66.37
2018-09-25T02:58:55.549Z,66.62
2018-09-25T03:01:28.992Z,66.96
2018-09-25T03:04:02.316Z,66.63
2018-09-25T03:06:35.529Z,66.92
2018-09-25T03:09:10.504Z,66.30
2018-09-25T03:11:43.826Z,66.88
2018-09-25T03:14:17.154Z,66.43
2018-09-25T03:16:50.366Z,67.33
2018-09-25T03:19:23.904Z,67.47
2018-09-25T03:21:57.157Z,67.80
2018-09-25T03:24:30.677Z,67.80
2018-09-25T03:27:03.914Z,68.24
2018-09-25T03:29:37.298Z,67.63
2018-09-25T03:32:10.832Z,67.20
2018-09-25T03:34:44.224Z,66.72
2018-09-25T03:37:17.761Z,66.41
2018-09-25T03:39:51.186Z,65.63
2018-09-25T03:42:24.634Z,65.75
2018-09-25T03:44:58.255Z,65.53
2018-09-25T03:47:31.512Z,65.95
2018-09-25T03:50:04.939Z,65.88
2018-09-25T03:52:38.378Z,65.32
2018-09-25T03:55:12.035Z,65.55
2018-09-25T03:57:45.433Z,65.96
2018-09-25T04:00:18.842Z,66.00
2018-09-25T04:02:52.159Z,65.98
2018-09-25T04:05:26.110Z,66.18
2018-09-25T04:07:59.737Z,65.90
2018-09-25T04:10:33.139Z,65.25
2018-09-25T04:13:06.687Z,65.33
2018-09-25T04:15:40.490Z,65.45
2018-09-25T04:18:13.983Z,65.44
2018-09-25T04:20:47.454Z,65.32
2018-09-25T04:23:20.855Z,64.65
2018-09-25T04:25:54.138Z,64.50
2018-09-25T04:28:27.680Z,64.75
2018-09-25T04:31:01.082Z,64.06
2018-09-25T04:33:34.471Z,64.16
2018-09-25T04:36:07.913Z,63.80
2018-09-25T04:38:41.279Z,62.72
2018-09-25T04:41:15.005Z,60.78
2018-09-25T04:43:48.710Z,59.29
2018-09-25T04:46:22.228Z,58.63
2018-09-25T04:48:55.704Z,58.99
2018-09-25T04:51:29.002Z,59.02
2018-09-25T04:54:02.360Z,59.76
2018-09-25T04:56:35.823Z,60.49
2018-09-25T04:59:09.087Z,60.38
2018-09-25T05:01:42.449Z,61.13
2018-09-25T05:04:15.835Z,61.27
2018-09-25T05:06:49.174Z,59.90
2018-09-25T05:09:22.497Z,60.33
2018-09-25T05:11:55.964Z,59.04
2018-09-25T05:14:29.472Z,59.64
2018-09-25T05:17:03.146Z,59.13
2018-09-25T05:19:36.632Z,58.94
2018-09-25T05:22:11.289Z,59.23
2018-09-25T05:24:45.728Z,59.52
2018-09-25T05:27:19.173Z,58.97
2018-09-25T05:29:52.709Z,59.40
2018-09-25T05:32:26.103Z,60.24
2018-09-25T05:34:59.379Z,59.62
2018-09-25T05:37:32.667Z,60.51
2018-09-25T05:40:06.093Z,59.67
2018-09-25T05:42:39.646Z,59.17
2018-09-25T05:45:13.128Z,59.15
2018-09-25T05:47:46.475Z,59.17
2018-09-25T05:50:23.832Z,58.74
2018-09-25T05:52:58.221Z,58.47
2018-09-25T05:55:31.828Z,58.70
2018-09-25T05:58:05.284Z,58.83
2018-09-25T06:00:38.795Z,60.22
2018-09-25T06:03:13.819Z,58.01
2018-09-25T06:05:47.276Z,57.37
2018-09-25T06:08:20.686Z,56.64
2018-09-25T06:10:54.160Z,56.81
2018-09-25T06:13:27.611Z,57.28
2018-09-25T06:16:01.045Z,57.38
2018-09-25T06:18:34.506Z,57.33
2018-09-25T06:21:08.305Z,57.70
2018-09-25T06:23:42.811Z,57.44
2018-09-25T06:26:16.179Z,56.73
2018-09-25T06:28:50.255Z,58.58
2018-09-25T06:31:23.699Z,56.88
2018-09-25T06:33:57.051Z,55.84
2018-09-25T06:36:30.530Z,57.02
2018-09-25T06:39:03.919Z,57.22
2018-09-25T06:41:37.395Z,56.65
2018-09-25T06:44:10.735Z,55.75
2018-09-25T06:46:44.188Z,55.11
2018-09-25T06:49:18.631Z,53.12
2018-09-25T06:51:52.047Z,54.66
2018-09-25T06:54:25.458Z,54.33
2018-09-25T06:56:58.897Z,51.05
2018-09-25T06:59:32.276Z,49.68
2018-09-25T07:02:06.560Z,51.76
2018-09-25T07:04:39.906Z,51.45
2018-09-25T07:07:13.645Z,53.98
2018-09-25T07:09:47.638Z,50.73
2018-09-25T07:12:20.963Z,50.85
2018-09-25T07:14:54.395Z,51.29
2018-09-25T07:17:27.927Z,48.13
2018-09-25T07:20:01.372Z,45.23
2018-09-25T07:22:34.818Z,45.03
2018-09-25T07:25:08.243Z,47.22
2018-09-25T07:27:41.703Z,45.53
2018-09-25T07:30:15.143Z,45.94
2018-09-25T07:32:48.463Z,44.73
2018-09-25T07:35:21.881Z,46.28
2018-09-25T07:37:55.288Z,48.07
2018-09-25T07:40:28.725Z,50.77
2018-09-25T07:43:02.098Z,50.91
2018-09-25T07:45:36.581Z,52.77
2018-09-25T07:48:09.987Z,55.01
2018-09-25T07:50:47.595Z,52.88
2018-09-25T07:53:21.117Z,51.11
2018-09-25T07:55:54.369Z,51.51
2018-09-25T07:58:27.909Z,50.73
2018-09-25T08:01:01.166Z,48.71
2018-09-25T08:03:34.514Z,48.56
2018-09-25T08:06:11.340Z,50.55
2018-09-25T08:08:44.758Z,49.45
2018-09-25T08:11:18.607Z,47.54
2018-09-25T08:13:52.027Z,45.75
2018-09-25T08:16:25.464Z,44.45
2018-09-25T08:18:58.962Z,44.83
2018-09-25T08:21:32.503Z,44.82
2018-09-25T08:24:05.963Z,46.39
2018-09-25T08:26:39.448Z,42.81
2018-09-25T08:29:12.864Z,41.55
2018-09-25T08:31:46.173Z,41.27
2018-09-25T08:34:19.622Z,43.08
2018-09-25T08:36:52.959Z,42.30
2018-09-25T08:39:26.661Z,40.74
2018-09-25T08:42:00.625Z,39.93
2018-09-25T08:44:33.974Z,40.41
2018-09-25T08:47:07.437Z,39.55
2018-09-25T08:49:41.025Z,37.56
2018-09-25T08:52:14.625Z,37.56
2018-09-25T08:54:48.010Z,36.98
2018-09-25T08:57:21.274Z,36.70
2018-09-25T08:59:54.653Z,38.58
2018-09-25T09:02:28.039Z,36.34
2018-09-25T09:05:01.792Z,38.26
2018-09-25T09:07:35.184Z,37.68
2018-09-25T09:10:09.179Z,35.19
2018-09-25T09:12:42.455Z,34.69
2018-09-25T09:15:15.893Z,34.95
2018-09-25T09:17:49.339Z,34.88
2018-09-25T09:20:22.820Z,34.13
2018-09-25T09:22:56.289Z,35.11
2018-09-25T09:25:29.714Z,36.43
2018-09-25T09:28:03.161Z,34.67
2018-09-25T09:30:37.104Z,33.52
2018-09-25T09:33:10.787Z,33.43
2018-09-25T09:35:46.597Z,33.58
2018-09-25T09:38:20.041Z,35.92
2018-09-25T09:40:53.288Z,37.53
2018-09-25T09:43:26.768Z,36.53
2018-09-25T09:46:00.059Z,35.35
2018-09-25T09:48:33.602Z,35.64
2018-09-25T09:51:07.118Z,37.08
2018-09-25T09:53:40.585Z,37.02
2018-09-25T09:56:13.819Z,35.86
2018-09-25T09:58:47.189Z,34.24
2018-09-25T10:01:20.554Z,33.02
2018-09-25T10:03:53.938Z,35.45
2018-09-25T10:06:27.321Z,33.63
2018-09-25T10:09:00.684Z,32.46
2018-09-25T10:11:33.932Z,32.75
2018-09-25T10:14:07.404Z,31.20
2018-09-25T10:16:40.712Z,31.35
2018-09-25T10:19:14.146Z,30.36
2018-09-25T10:21:47.534Z,31.65
2018-09-25T10:24:21.646Z,33.74
2018-09-25T10:26:55.636Z,35.02
2018-09-25T10:29:28.993Z,36.07
2018-09-25T10:32:02.373Z,36.88
2018-09-25T10:34:35.720Z,35.77
2018-09-25T10:37:09.156Z,33.79
2018-09-25T10:39:42.573Z,33.65
2018-09-25T10:42:18.078Z,34.80
2018-09-25T10:44:51.430Z,34.59
2018-09-25T10:47:24.927Z,34.64
2018-09-25T10:49:58.208Z,34.85
2018-09-25T10:52:31.618Z,33.92
2018-09-25T10:55:05.051Z,34.29
2018-09-25T10:57:38.594Z,34.82
2018-09-25T11:00:12.197Z,34.10
2018-09-25T11:02:45.626Z,32.05
2018-09-25T11:05:20.446Z,31.01
2018-09-25T11:07:53.883Z,30.93
2018-09-25T11:10:27.383Z,31.32
2018-09-25T11:13:00.678Z,34.50
2018-09-25T11:15:34.820Z,33.53
2018-09-25T11:18:08.282Z,33.55
2018-09-25T11:20:41.714Z,33.62
2018-09-25T11:23:16.143Z,32.71
2018-09-25T11:25:49.818Z,34.23
2018-09-25T11:28:23.195Z,33.58
2018-09-25T11:30:56.684Z,32.63
2018-09-25T11:33:30.008Z,32.28
2018-09-25T11:36:03.299Z,31.58
2018-09-25T11:38:36.799Z,30.34
2018-09-25T11:41:10.335Z,33.33
2018-09-25T11:43:43.842Z,30.65
2018-09-25T11:46:17.043Z,30.52
2018-09-25T11:48:50.541Z,30.40
2018-09-25T11:51:23.995Z,30.79
2018-09-25T11:53:57.828Z,32.23
2018-09-25T11:56:31.272Z,32.57
2018-09-25T11:59:04.677Z,34.03
2018-09-25T12:01:38.236Z,32.67
2018-09-25T12:04:12.623Z,31.56
2018-09-25T12:06:46.214Z,32.70
2018-09-25T12:09:19.819Z,31.27
2018-09-25T12:11:53.426Z,30.43
2018-09-25T12:14:27.373Z,30.33
2018-09-25T12:17:00.775Z,30.35
2018-09-25T12:19:34.370Z,32.12
2018-09-25T12:22:07.857Z,30.63
2018-09-25T12:24:41.400Z,31.06
2018-09-25T12:27:14.818Z,30.69
2018-09-25T12:29:48.405Z,30.87
2018-09-25T12:32:21.938Z,32.11
2018-09-25T12:34:55.648Z,31.06
2018-09-25T12:37:29.190Z,30.27
2018-09-25T12:40:04.361Z,30.12
2018-09-25T12:42:39.904Z,30.43
2018-09-25T12:45:15.178Z,28.74
2018-09-25T12:47:52.097Z,30.16
2018-09-25T12:50:26.698Z,29.24
2018-09-25T12:53:01.375Z,28.52
2018-09-25T12:55:36.303Z,27.65
2018-09-25T12:58:13.102Z,27.53
2018-09-25T13:00:46.329Z,28.30
2018-09-25T13:03:34.478Z,28.18
2018-09-25T13:06:08.942Z,26.44
2018-09-25T13:08:42.508Z,26.17
2018-09-25T13:11:16.985Z,26.38
2018-09-25T13:13:51.255Z,26.79
2018-09-25T13:16:24.981Z,26.63
2018-09-25T13:18:58.874Z,26.66
2018-09-25T13:21:32.250Z,26.79
2018-09-25T13:24:05.854Z,26.63
2018-09-25T13:26:39.309Z,27.49
2018-09-25T13:29:12.739Z,27.52
2018-09-25T13:31:46.213Z,27.69
2018-09-25T13:34:19.686Z,27.21
2018-09-25T13:36:57.742Z,27.37
2018-09-25T13:39:31.105Z,27.52
2018-09-25T13:42:05.941Z,28.47
2018-09-25T13:44:39.241Z,28.15
2018-09-25T13:47:12.940Z,28.16
2018-09-25T13:49:46.885Z,28.68
2018-09-25T13:52:20.267Z,28.31
2018-09-25T13:54:55.386Z,28.36
2018-09-25T13:57:30.290Z,28.86
2018-09-25T14:00:04.824Z,29.06
2018-09-25T14:02:39.639Z,29.28
2018-09-25T14:05:14.733Z,29.42
2018-09-25T14:07:48.196Z,29.74
2018-09-25T14:10:21.745Z,29.63
2018-09-25T14:12:55.242Z,30.28
2018-09-25T14:15:32.921Z,30.29
2018-09-25T14:18:06.222Z,30.06
2018-09-25T14:20:40.012Z,30.43
2018-09-25T14:23:14.824Z,30.53
2018-09-25T14:25:48.827Z,30.92
2018-09-25T14:28:23.663Z,30.71
2018-09-25T14:30:56.913Z,31.51
2018-09-25T14:33:32.367Z,32.01
2018-09-25T14:36:05.604Z,31.72
2018-09-25T14:38:39.026Z,31.75
2018-09-25T14:41:19.238Z,31.58
2018-09-25T14:43:52.669Z,31.60
2018-09-25T14:46:26.193Z,31.67
2018-09-25T14:49:00.492Z,31.64
2018-09-25T14:51:33.992Z,31.53
2018-09-25T14:54:07.705Z,31.44
2018-09-25T14:56:41.311Z,31.04
2018-09-25T14:59:15.354Z,31.16
2018-09-25T15:01:48.952Z,31.01
2018-09-25T15:04:22.172Z,31.69
2018-09-25T15:06:55.629Z,31.26
2018-09-25T15:09:29.098Z,31.73
2018-09-25T15:12:02.635Z,32.08
2018-09-25T15:14:36.231Z,32.35
2018-09-25T15:17:09.541Z,32.52
2018-09-25T15:19:42.979Z,33.20
2018-09-25T15:22:16.786Z,32.84
2018-09-25T15:24:49.865Z,32.70
2018-09-25T15:27:23.323Z,33.30
2018-09-25T15:29:56.510Z,33.23
2018-09-25T15:32:29.876Z,33.31
2018-09-25T15:35:03.660Z,33.06
2018-09-25T15:37:37.121Z,33.35
2018-09-25T15:40:11.157Z,33.74
2018-09-25T15:42:44.616Z,33.65
2018-09-25T15:45:18.195Z,34.22
2018-09-25T15:47:51.926Z,34.01
2018-09-25T15:50:25.939Z,34.40
2018-09-25T15:52:59.796Z,34.21
2018-09-25T15:55:34.679Z,34.48
2018-09-25T15:58:08.267Z,33.92
2018-09-25T16:00:41.762Z,34.34
2018-09-25T16:03:15.486Z,34.23
2018-09-25T16:05:48.976Z,34.16
2018-09-25T16:08:22.454Z,33.94
2018-09-25T16:10:55.933Z,33.89
2018-09-25T16:13:29.336Z,34.00
2018-09-25T16:16:02.683Z,34.26
2018-09-25T16:18:36.170Z,34.18
2018-09-25T16:21:09.956Z,34.69
2018-09-25T16:23:43.450Z,35.36
2018-09-25T16:26:16.929Z,35.78
2018-09-25T16:28:51.421Z,35.79
2018-09-25T16:31:24.914Z,35.65
2018-09-25T16:33:58.417Z,36.09
2018-09-25T16:36:31.819Z,36.63
2018-09-25T16:39:05.218Z,37.01
2018-09-25T16:41:38.661Z,36.82
2018-09-25T16:44:12.219Z,37.02
2018-09-25T16:46:45.598Z,37.48
2018-09-25T16:49:18.973Z,38.22
2018-09-25T16:51:52.383Z,38.36
2018-09-25T16:54:25.760Z,38.61
2018-09-25T16:56:59.207Z,39.20
2018-09-25T16:59:34.807Z,39.44
2018-09-25T17:02:09.214Z,39.89
2018-09-25T17:04:43.306Z,39.44
2018-09-25T17:07:16.745Z,39.92
2018-09-25T17:09:50.202Z,40.21
2018-09-25T17:12:23.718Z,40.35
2018-09-25T17:14:57.393Z,40.53
2018-09-25T17:17:30.780Z,40.53
2018-09-25T17:20:04.113Z,40.19
2018-09-25T17:22:38.999Z,39.99
2018-09-25T17:25:12.739Z,40.03
2018-09-25T17:27:46.245Z,39.92
2018-09-25T17:30:20.343Z,40.28
2018-09-25T17:32:53.864Z,40.36
2018-09-25T17:35:27.350Z,40.09
2018-09-25T17:38:03.886Z,40.81
2018-09-25T17:40:38.730Z,40.82
2018-09-25T17:43:14.822Z,40.38
2018-09-25T17:45:50.445Z,40.54
2018-09-25T17:48:25.704Z,40.46
2018-09-25T17:51:01.876Z,39.44
2018-09-25T17:53:39.649Z,39.25
2018-09-25T17:56:16.276Z,39.38
2018-09-25T17:58:55.510Z,39.51
2018-09-25T18:01:40.976Z,38.83
2018-09-25T18:04:14.732Z,39.00
2018-09-25T18:06:48.306Z,39.78
2018-09-25T18:09:23.759Z,39.32
2018-09-25T18:11:57.348Z,39.42
2018-09-25T18:14:30.816Z,39.85
2018-09-25T18:17:04.310Z,39.35
2018-09-25T18:19:37.672Z,39.27
2018-09-25T18:22:11.406Z,37.91
2018-09-25T18:24:48.399Z,38.18
2018-09-25T18:27:21.773Z,38.00
2018-09-25T18:29:55.263Z,38.28
2018-09-25T18:32:28.769Z,38.67
2018-09-25T18:35:03.080Z,37.76
2018-09-25T18:37:36.488Z,37.44
2018-09-25T18:40:10.183Z,37.37
2018-09-25T18:42:43.789Z,37.81
2018-09-25T18:45:17.289Z,38.43
2018-09-25T18:47:50.937Z,38.82
2018-09-25T18:50:24.352Z,37.40
2018-09-25T18:52:57.764Z,37.04
2018-09-25T18:55:31.040Z,38.03
2018-09-25T18:58:04.459Z,37.88
2018-09-25T19:00:37.742Z,36.87
2018-09-25T19:03:11.265Z,37.19
2018-09-25T19:05:50.176Z,37.24
2018-09-25T19:08:23.943Z,37.83
2018-09-25T19:10:57.629Z,38.49
2018-09-25T19:13:31.014Z,38.89
2018-09-25T19:16:04.588Z,38.53
2018-09-25T19:18:37.882Z,38.73
2018-09-25T19:21:11.194Z,38.66
2018-09-25T19:23:44.615Z,38.67
2018-09-25T19:26:18.059Z,38.80
2018-09-25T19:28:51.467Z,39.69
2018-09-25T19:31:25.416Z,39.09
2018-09-25T19:33:58.890Z,38.83
2018-09-25T19:36:32.166Z,38.56
2018-09-25T19:39:05.814Z,38.03
2018-09-25T19:41:39.040Z,39.22
2018-09-25T19:44:12.494Z,39.93
2018-09-25T19:46:45.986Z,39.69
2018-09-25T19:49:19.351Z,40.57
2018-09-25T19:51:52.785Z,40.09
2018-09-25T19:54:26.336Z,38.93
2018-09-25T19:56:59.686Z,39.91
2018-09-25T19:59:33.574Z,39.48
2018-09-25T20:02:06.862Z,39.73
2018-09-25T20:04:40.782Z,40.72
2018-09-25T20:07:14.835Z,41.32
2018-09-25T20:09:48.516Z,41.70
2018-09-25T20:12:22.112Z,40.87
2018-09-25T20:14:55.422Z,41.82
2018-09-25T20:17:28.897Z,42.31
2018-09-25T20:20:03.182Z,42.89
2018-09-25T20:22:37.269Z,42.85
2018-09-25T20:25:10.755Z,42.76
2018-09-25T20:27:44.178Z,42.11
2018-09-25T20:30:17.512Z,41.83
2018-09-25T20:32:51.294Z,42.99
2018-09-25T20:35:26.320Z,42.97
2018-09-25T20:38:00.163Z,43.60
2018-09-25T20:40:33.609Z,43.36
2018-09-25T20:43:07.022Z,44.29
2018-09-25T20:45:40.538Z,44.26
2018-09-25T20:48:13.809Z,44.01
2018-09-25T20:50:47.280Z,43.71
2018-09-25T20:53:20.886Z,44.15
2018-09-25T20:55:54.304Z,44.05
2018-09-25T20:58:27.692Z,44.73
2018-09-25T21:01:01.133Z,44.64
2018-09-25T21:03:34.409Z,44.57
2018-09-25T21:06:07.703Z,44.97
2018-09-25T21:08:42.206Z,45.18
2018-09-25T21:11:15.591Z,45.97
2018-09-25T21:13:49.080Z,46.14
2018-09-25T21:16:22.578Z,45.94
2018-09-25T21:18:56.833Z,45.66
2018-09-25T21:21:30.298Z,46.01
2018-09-25T21:24:03.827Z,46.09
2018-09-25T21:26:38.213Z,45.61
2018-09-25T21:29:12.022Z,47.13
2018-09-25T21:31:45.380Z,46.22
2018-09-25T21:34:18.803Z,47.50
2018-09-25T21:36:52.083Z,47.09
2018-09-25T21:39:25.494Z,47.40
2018-09-25T21:41:58.874Z,47.69
2018-09-25T21:44:32.298Z,48.05
2018-09-25T21:47:05.679Z,48.44
2018-09-25T21:49:39.323Z,48.61
2018-09-25T21:52:12.642Z,47.97
2018-09-25T21:54:46.220Z,47.91
2018-09-25T21:57:19.564Z,47.58
2018-09-25T21:59:53.009Z,48.03
2018-09-25T22:02:26.382Z,47.97
2018-09-25T22:04:59.831Z,47.96
2018-09-25T22:07:33.326Z,48.64
2018-09-25T22:10:06.797Z,48.85
2018-09-25T22:12:40.223Z,48.56
2018-09-25T22:15:13.681Z,49.51
2018-09-25T22:17:47.637Z,48.75
2018-09-25T22:20:20.993Z,48.52
2018-09-25T22:22:54.407Z,47.51
2018-09-25T22:25:27.799Z,46.83
2018-09-25T22:28:01.401Z,47.36
2018-09-25T22:30:36.764Z,47.53
2018-09-25T22:33:13.144Z,47.71
2018-09-25T22:35:58.551Z,48.80
2018-09-25T22:38:31.981Z,48.32
2018-09-25T22:41:05.325Z,48.20
2018-09-25T22:43:38.886Z,47.61
2018-09-25T22:46:12.307Z,48.27
2018-09-25T22:48:45.661Z,48.26
2018-09-25T22:51:19.358Z,48.14
2018-09-25T22:53:52.614Z,48.71
2018-09-25T22:56:26.087Z,48.35
2018-09-25T22:58:59.467Z,48.56
2018-09-25T23:01:32.986Z,47.82
2018-09-25T23:04:06.400Z,47.66
2018-09-25T23:06:39.846Z,47.96
2018-09-25T23:09:14.011Z,48.82
2018-09-25T23:11:47.683Z,49.35
2018-09-25T23:14:21.094Z,48.88
2018-09-25T23:16:54.596Z,48.83
2018-09-25T23:19:27.986Z,48.76
2018-09-25T23:22:01.266Z,49.50
2018-09-25T23:24:34.618Z,50.60
2018-09-25T23:27:08.075Z,51.24
2018-09-25T23:29:41.424Z,51.13
2018-09-25T23:32:14.904Z,50.95
2018-09-25T23:34:48.336Z,50.63
2018-09-25T23:37:21.753Z,51.00
2018-09-25T23:39:58.026Z,51.59
2018-09-25T23:42:30.808Z,51.05
2018-09-25T23:45:06.202Z,51.03
2018-09-25T23:47:40.664Z,52.12
2018-09-25T23:50:22.942Z,52.73
2018-09-25T23:53:27.075Z,52.78
2018-09-25T23:56:03.549Z,53.45
2018-09-25T23:58:34.868Z,52.48
